sensor_id;sensor_type;location;lat;lon;timestamp;P1;durP1;ratioP1;P2;durP2;ratioP2
14118;SDS011;7138;49.246;9.100;2024-01-11T00:00:15;24.88;;;13.23;;
14118;SDS011;7138;49.246;9.100;2024-01-11T00:02:42;27.48;;;14.52;;
14118;SDS011;7138;49.246;9.100;2024-01-11T00:05:08;25.67;;;13.43;;
14118;SDS011;7138;49.246;9.100;2024-01-11T00:07:35;27.67;;;14.00;;
14118;SDS011;7138;49.246;9.100;2024-01-11T00:10:01;26.77;;;12.98;;
14118;SDS011;7138;49.246;9.100;2024-01-11T00:12:28;27.55;;;13.85;;
14118;SDS011;7138;49.246;9.100;2024-01-11T00:14:56;29.63;;;13.70;;
14118;SDS011;7138;49.246;9.100;2024-01-11T00:17:23;25.80;;;13.30;;
14118;SDS011;7138;49.246;9.100;2024-01-11T00:19:50;26.52;;;13.30;;
14118;SDS011;7138;49.246;9.100;2024-01-11T00:22:16;25.77;;;13.15;;
14118;SDS011;7138;49.246;9.100;2024-01-11T00:24:42;27.17;;;14.15;;
14118;SDS011;7138;49.246;9.100;2024-01-11T00:27:07;24.27;;;13.05;;
14118;SDS011;7138;49.246;9.100;2024-01-11T00:29:33;26.77;;;14.40;;
14118;SDS011;7138;49.246;9.100;2024-01-11T00:32:02;29.35;;;14.32;;
14118;SDS011;7138;49.246;9.100;2024-01-11T00:34:28;30.83;;;13.93;;
14118;SDS011;7138;49.246;9.100;2024-01-11T00:36:54;27.88;;;14.63;;
14118;SDS011;7138;49.246;9.100;2024-01-11T00:39:21;28.63;;;14.15;;
14118;SDS011;7138;49.246;9.100;2024-01-11T00:41:47;23.73;;;12.80;;
14118;SDS011;7138;49.246;9.100;2024-01-11T00:44:13;25.27;;;13.23;;
14118;SDS011;7138;49.246;9.100;2024-01-11T00:46:39;30.63;;;14.93;;
14118;SDS011;7138;49.246;9.100;2024-01-11T00:49:07;27.35;;;13.77;;
14118;SDS011;7138;49.246;9.100;2024-01-11T00:51:33;25.45;;;13.55;;
14118;SDS011;7138;49.246;9.100;2024-01-11T00:53:59;27.92;;;14.30;;
14118;SDS011;7138;49.246;9.100;2024-01-11T00:56:24;26.40;;;13.90;;
14118;SDS011;7138;49.246;9.100;2024-01-11T00:58:51;29.33;;;14.95;;
14118;SDS011;7138;49.246;9.100;2024-01-11T01:01:17;28.33;;;14.40;;
14118;SDS011;7138;49.246;9.100;2024-01-11T01:03:43;25.83;;;14.20;;
14118;SDS011;7138;49.246;9.100;2024-01-11T01:06:10;29.42;;;13.82;;
14118;SDS011;7138;49.246;9.100;2024-01-11T01:08:36;28.00;;;14.32;;
14118;SDS011;7138;49.246;9.100;2024-01-11T01:11:02;25.73;;;13.68;;
14118;SDS011;7138;49.246;9.100;2024-01-11T01:13:28;25.92;;;14.20;;
14118;SDS011;7138;49.246;9.100;2024-01-11T01:15:54;29.33;;;14.57;;
14118;SDS011;7138;49.246;9.100;2024-01-11T01:18:20;29.70;;;14.32;;
14118;SDS011;7138;49.246;9.100;2024-01-11T01:20:46;27.98;;;14.63;;
14118;SDS011;7138;49.246;9.100;2024-01-11T01:23:13;28.23;;;14.00;;
14118;SDS011;7138;49.246;9.100;2024-01-11T01:25:39;28.50;;;14.27;;
14118;SDS011;7138;49.246;9.100;2024-01-11T01:28:05;27.55;;;14.63;;
14118;SDS011;7138;49.246;9.100;2024-01-11T01:30:31;31.63;;;15.05;;
14118;SDS011;7138;49.246;9.100;2024-01-11T01:32:57;29.75;;;14.63;;
14118;SDS011;7138;49.246;9.100;2024-01-11T01:35:23;27.60;;;14.43;;
14118;SDS011;7138;49.246;9.100;2024-01-11T01:37:49;28.02;;;14.30;;
14118;SDS011;7138;49.246;9.100;2024-01-11T01:40:16;28.15;;;14.70;;
14118;SDS011;7138;49.246;9.100;2024-01-11T01:42:42;28.63;;;15.40;;
14118;SDS011;7138;49.246;9.100;2024-01-11T01:45:09;29.15;;;15.05;;
14118;SDS011;7138;49.246;9.100;2024-01-11T01:47:35;27.85;;;14.25;;
14118;SDS011;7138;49.246;9.100;2024-01-11T01:50:03;31.90;;;13.93;;
14118;SDS011;7138;49.246;9.100;2024-01-11T01:52:30;27.42;;;14.05;;
14118;SDS011;7138;49.246;9.100;2024-01-11T01:54:59;26.08;;;13.95;;
14118;SDS011;7138;49.246;9.100;2024-01-11T01:57:28;29.88;;;14.32;;
14118;SDS011;7138;49.246;9.100;2024-01-11T01:59:58;32.42;;;16.52;;
14118;SDS011;7138;49.246;9.100;2024-01-11T02:02:26;27.02;;;14.55;;
14118;SDS011;7138;49.246;9.100;2024-01-11T02:04:53;29.70;;;16.17;;
14118;SDS011;7138;49.246;9.100;2024-01-11T02:07:20;30.95;;;15.10;;
14118;SDS011;7138;49.246;9.100;2024-01-11T02:09:46;31.88;;;16.00;;
14118;SDS011;7138;49.246;9.100;2024-01-11T02:12:13;29.67;;;15.18;;
14118;SDS011;7138;49.246;9.100;2024-01-11T02:14:41;27.98;;;13.82;;
14118;SDS011;7138;49.246;9.100;2024-01-11T02:17:07;31.38;;;15.43;;
14118;SDS011;7138;49.246;9.100;2024-01-11T02:19:33;29.33;;;14.52;;
14118;SDS011;7138;49.246;9.100;2024-01-11T02:22:00;29.58;;;16.23;;
14118;SDS011;7138;49.246;9.100;2024-01-11T02:24:38;29.27;;;14.25;;
14118;SDS011;7138;49.246;9.100;2024-01-11T02:27:04;29.52;;;14.73;;
14118;SDS011;7138;49.246;9.100;2024-01-11T02:29:30;32.97;;;16.00;;
14118;SDS011;7138;49.246;9.100;2024-01-11T02:31:57;29.13;;;14.65;;
14118;SDS011;7138;49.246;9.100;2024-01-11T02:34:25;28.80;;;15.32;;
14118;SDS011;7138;49.246;9.100;2024-01-11T02:36:53;29.52;;;15.20;;
14118;SDS011;7138;49.246;9.100;2024-01-11T02:39:19;31.42;;;14.90;;
14118;SDS011;7138;49.246;9.100;2024-01-11T02:41:49;25.33;;;14.48;;
14118;SDS011;7138;49.246;9.100;2024-01-11T02:44:17;29.73;;;14.60;;
14118;SDS011;7138;49.246;9.100;2024-01-11T02:46:43;29.92;;;14.50;;
14118;SDS011;7138;49.246;9.100;2024-01-11T02:49:08;28.83;;;14.20;;
14118;SDS011;7138;49.246;9.100;2024-01-11T02:51:34;26.08;;;13.80;;
14118;SDS011;7138;49.246;9.100;2024-01-11T02:54:01;29.33;;;14.35;;
14118;SDS011;7138;49.246;9.100;2024-01-11T02:56:27;32.08;;;15.30;;
14118;SDS011;7138;49.246;9.100;2024-01-11T02:58:54;28.38;;;15.23;;
14118;SDS011;7138;49.246;9.100;2024-01-11T03:01:20;28.67;;;13.80;;
14118;SDS011;7138;49.246;9.100;2024-01-11T03:03:46;30.02;;;14.57;;
14118;SDS011;7138;49.246;9.100;2024-01-11T03:06:12;29.27;;;15.32;;
14118;SDS011;7138;49.246;9.100;2024-01-11T03:08:39;28.63;;;15.25;;
14118;SDS011;7138;49.246;9.100;2024-01-11T03:11:04;32.55;;;15.18;;
14118;SDS011;7138;49.246;9.100;2024-01-11T03:13:30;32.05;;;15.48;;
14118;SDS011;7138;49.246;9.100;2024-01-11T03:15:58;32.25;;;15.95;;
14118;SDS011;7138;49.246;9.100;2024-01-11T03:18:24;34.63;;;15.55;;
14118;SDS011;7138;49.246;9.100;2024-01-11T03:20:49;32.25;;;16.75;;
14118;SDS011;7138;49.246;9.100;2024-01-11T03:23:15;28.83;;;15.30;;
14118;SDS011;7138;49.246;9.100;2024-01-11T03:25:41;30.13;;;15.57;;
14118;SDS011;7138;49.246;9.100;2024-01-11T03:28:07;30.60;;;15.32;;
14118;SDS011;7138;49.246;9.100;2024-01-11T03:30:33;28.83;;;15.15;;
14118;SDS011;7138;49.246;9.100;2024-01-11T03:33:00;31.92;;;15.35;;
14118;SDS011;7138;49.246;9.100;2024-01-11T03:35:26;28.85;;;15.65;;
14118;SDS011;7138;49.246;9.100;2024-01-11T03:37:51;30.85;;;15.98;;
14118;SDS011;7138;49.246;9.100;2024-01-11T03:40:17;30.40;;;15.55;;
14118;SDS011;7138;49.246;9.100;2024-01-11T03:42:43;32.45;;;14.90;;
14118;SDS011;7138;49.246;9.100;2024-01-11T03:45:09;27.50;;;15.02;;
14118;SDS011;7138;49.246;9.100;2024-01-11T03:47:35;29.98;;;15.68;;
14118;SDS011;7138;49.246;9.100;2024-01-11T03:50:03;28.25;;;13.63;;
14118;SDS011;7138;49.246;9.100;2024-01-11T03:52:29;29.00;;;15.18;;
14118;SDS011;7138;49.246;9.100;2024-01-11T03:54:55;32.00;;;15.80;;
14118;SDS011;7138;49.246;9.100;2024-01-11T03:57:21;28.05;;;15.73;;
14118;SDS011;7138;49.246;9.100;2024-01-11T03:59:47;34.03;;;15.20;;
14118;SDS011;7138;49.246;9.100;2024-01-11T04:02:13;29.38;;;15.25;;
14118;SDS011;7138;49.246;9.100;2024-01-11T04:04:39;33.08;;;15.13;;
14118;SDS011;7138;49.246;9.100;2024-01-11T04:07:07;30.42;;;15.23;;
14118;SDS011;7138;49.246;9.100;2024-01-11T04:09:33;32.45;;;16.13;;
14118;SDS011;7138;49.246;9.100;2024-01-11T04:12:01;31.08;;;15.70;;
14118;SDS011;7138;49.246;9.100;2024-01-11T04:14:28;31.42;;;15.05;;
14118;SDS011;7138;49.246;9.100;2024-01-11T04:16:54;28.10;;;14.55;;
14118;SDS011;7138;49.246;9.100;2024-01-11T04:19:20;30.23;;;16.05;;
14118;SDS011;7138;49.246;9.100;2024-01-11T04:21:45;31.83;;;16.02;;
14118;SDS011;7138;49.246;9.100;2024-01-11T04:24:13;34.92;;;16.45;;
14118;SDS011;7138;49.246;9.100;2024-01-11T04:26:39;35.10;;;17.08;;
14118;SDS011;7138;49.246;9.100;2024-01-11T04:29:04;31.02;;;15.52;;
14118;SDS011;7138;49.246;9.100;2024-01-11T04:31:30;30.45;;;15.57;;
14118;SDS011;7138;49.246;9.100;2024-01-11T04:33:56;32.45;;;16.10;;
14118;SDS011;7138;49.246;9.100;2024-01-11T04:36:22;39.53;;;17.55;;
14118;SDS011;7138;49.246;9.100;2024-01-11T04:38:48;31.45;;;16.10;;
14118;SDS011;7138;49.246;9.100;2024-01-11T04:41:15;32.92;;;16.70;;
14118;SDS011;7138;49.246;9.100;2024-01-11T04:43:41;32.78;;;17.42;;
14118;SDS011;7138;49.246;9.100;2024-01-11T04:46:15;31.95;;;15.77;;
14118;SDS011;7138;49.246;9.100;2024-01-11T04:48:42;32.40;;;15.93;;
14118;SDS011;7138;49.246;9.100;2024-01-11T04:51:09;30.80;;;16.05;;
14118;SDS011;7138;49.246;9.100;2024-01-11T04:53:36;35.03;;;16.75;;
14118;SDS011;7138;49.246;9.100;2024-01-11T04:56:03;36.22;;;16.70;;
14118;SDS011;7138;49.246;9.100;2024-01-11T04:58:32;29.85;;;15.10;;
14118;SDS011;7138;49.246;9.100;2024-01-11T05:00:58;37.53;;;18.08;;
14118;SDS011;7138;49.246;9.100;2024-01-11T05:03:25;36.80;;;17.45;;
14118;SDS011;7138;49.246;9.100;2024-01-11T05:05:50;34.33;;;16.67;;
14118;SDS011;7138;49.246;9.100;2024-01-11T05:08:16;32.08;;;17.20;;
14118;SDS011;7138;49.246;9.100;2024-01-11T05:10:42;32.53;;;16.58;;
14118;SDS011;7138;49.246;9.100;2024-01-11T05:13:09;31.65;;;16.77;;
14118;SDS011;7138;49.246;9.100;2024-01-11T05:15:36;32.58;;;16.55;;
14118;SDS011;7138;49.246;9.100;2024-01-11T05:18:02;34.05;;;16.83;;
14118;SDS011;7138;49.246;9.100;2024-01-11T05:20:29;35.88;;;17.33;;
14118;SDS011;7138;49.246;9.100;2024-01-11T05:22:55;30.27;;;15.70;;
14118;SDS011;7138;49.246;9.100;2024-01-11T05:25:21;31.33;;;16.55;;
14118;SDS011;7138;49.246;9.100;2024-01-11T05:27:46;33.70;;;16.38;;
14118;SDS011;7138;49.246;9.100;2024-01-11T05:30:12;32.55;;;17.38;;
14118;SDS011;7138;49.246;9.100;2024-01-11T05:32:40;35.72;;;17.95;;
14118;SDS011;7138;49.246;9.100;2024-01-11T05:35:06;31.90;;;15.98;;
14118;SDS011;7138;49.246;9.100;2024-01-11T05:37:33;32.20;;;16.42;;
14118;SDS011;7138;49.246;9.100;2024-01-11T05:39:59;37.13;;;17.05;;
14118;SDS011;7138;49.246;9.100;2024-01-11T05:42:25;31.80;;;17.10;;
14118;SDS011;7138;49.246;9.100;2024-01-11T05:44:51;33.25;;;17.58;;
14118;SDS011;7138;49.246;9.100;2024-01-11T05:47:17;27.33;;;14.73;;
14118;SDS011;7138;49.246;9.100;2024-01-11T05:49:44;30.90;;;16.55;;
14118;SDS011;7138;49.246;9.100;2024-01-11T05:52:11;32.95;;;16.45;;
14118;SDS011;7138;49.246;9.100;2024-01-11T05:54:36;35.05;;;16.67;;
14118;SDS011;7138;49.246;9.100;2024-01-11T05:57:02;35.40;;;17.90;;
14118;SDS011;7138;49.246;9.100;2024-01-11T05:59:29;32.38;;;16.77;;
14118;SDS011;7138;49.246;9.100;2024-01-11T06:01:54;33.60;;;17.05;;
14118;SDS011;7138;49.246;9.100;2024-01-11T06:04:24;31.58;;;16.02;;
14118;SDS011;7138;49.246;9.100;2024-01-11T06:06:52;32.38;;;17.23;;
14118;SDS011;7138;49.246;9.100;2024-01-11T06:09:18;30.35;;;15.88;;
14118;SDS011;7138;49.246;9.100;2024-01-11T06:11:44;36.63;;;16.95;;
14118;SDS011;7138;49.246;9.100;2024-01-11T06:14:10;37.33;;;18.13;;
14118;SDS011;7138;49.246;9.100;2024-01-11T06:16:35;32.53;;;16.92;;
14118;SDS011;7138;49.246;9.100;2024-01-11T06:19:01;33.40;;;16.13;;
14118;SDS011;7138;49.246;9.100;2024-01-11T06:21:27;34.00;;;17.35;;
14118;SDS011;7138;49.246;9.100;2024-01-11T06:23:54;35.83;;;17.50;;
14118;SDS011;7138;49.246;9.100;2024-01-11T06:26:20;36.00;;;17.25;;
14118;SDS011;7138;49.246;9.100;2024-01-11T06:28:47;37.33;;;17.90;;
14118;SDS011;7138;49.246;9.100;2024-01-11T06:31:13;37.50;;;17.20;;
14118;SDS011;7138;49.246;9.100;2024-01-11T06:33:39;35.35;;;17.17;;
14118;SDS011;7138;49.246;9.100;2024-01-11T06:36:05;33.00;;;16.73;;
14118;SDS011;7138;49.246;9.100;2024-01-11T06:41:02;30.75;;;16.02;;
14118;SDS011;7138;49.246;9.100;2024-01-11T06:43:28;34.83;;;17.45;;
14118;SDS011;7138;49.246;9.100;2024-01-11T06:45:54;39.00;;;17.40;;
14118;SDS011;7138;49.246;9.100;2024-01-11T06:48:19;36.35;;;16.45;;
14118;SDS011;7138;49.246;9.100;2024-01-11T06:50:45;33.75;;;16.20;;
14118;SDS011;7138;49.246;9.100;2024-01-11T06:53:11;35.67;;;17.00;;
14118;SDS011;7138;49.246;9.100;2024-01-11T06:55:37;32.83;;;17.00;;
14118;SDS011;7138;49.246;9.100;2024-01-11T06:58:04;35.95;;;17.27;;
14118;SDS011;7138;49.246;9.100;2024-01-11T07:00:30;36.55;;;17.60;;
14118;SDS011;7138;49.246;9.100;2024-01-11T07:02:56;37.30;;;18.98;;
14118;SDS011;7138;49.246;9.100;2024-01-11T07:05:22;34.72;;;16.85;;
14118;SDS011;7138;49.246;9.100;2024-01-11T07:07:47;36.42;;;16.83;;
14118;SDS011;7138;49.246;9.100;2024-01-11T07:10:13;36.58;;;18.00;;
14118;SDS011;7138;49.246;9.100;2024-01-11T07:12:40;38.03;;;17.60;;
14118;SDS011;7138;49.246;9.100;2024-01-11T07:15:09;35.72;;;17.85;;
14118;SDS011;7138;49.246;9.100;2024-01-11T07:17:36;38.63;;;18.45;;
14118;SDS011;7138;49.246;9.100;2024-01-11T07:20:02;37.67;;;18.83;;
14118;SDS011;7138;49.246;9.100;2024-01-11T07:22:29;40.95;;;18.50;;
14118;SDS011;7138;49.246;9.100;2024-01-11T07:24:55;37.75;;;18.20;;
14118;SDS011;7138;49.246;9.100;2024-01-11T07:27:20;39.63;;;18.10;;
14118;SDS011;7138;49.246;9.100;2024-01-11T07:29:46;40.22;;;18.83;;
14118;SDS011;7138;49.246;9.100;2024-01-11T07:32:13;40.72;;;18.88;;
14118;SDS011;7138;49.246;9.100;2024-01-11T07:34:39;37.70;;;19.02;;
14118;SDS011;7138;49.246;9.100;2024-01-11T07:37:05;39.10;;;18.50;;
14118;SDS011;7138;49.246;9.100;2024-01-11T07:39:31;45.22;;;20.05;;
14118;SDS011;7138;49.246;9.100;2024-01-11T07:41:56;36.65;;;18.25;;
14118;SDS011;7138;49.246;9.100;2024-01-11T07:44:22;39.58;;;18.17;;
14118;SDS011;7138;49.246;9.100;2024-01-11T07:46:48;36.95;;;18.83;;
14118;SDS011;7138;49.246;9.100;2024-01-11T07:49:15;42.50;;;19.33;;
14118;SDS011;7138;49.246;9.100;2024-01-11T07:51:41;32.22;;;16.17;;
14118;SDS011;7138;49.246;9.100;2024-01-11T07:54:07;40.40;;;18.63;;
14118;SDS011;7138;49.246;9.100;2024-01-11T07:56:33;34.67;;;18.02;;
14118;SDS011;7138;49.246;9.100;2024-01-11T07:59:00;38.17;;;17.75;;
14118;SDS011;7138;49.246;9.100;2024-01-11T08:01:26;38.80;;;17.88;;
14118;SDS011;7138;49.246;9.100;2024-01-11T08:03:51;35.08;;;17.35;;
14118;SDS011;7138;49.246;9.100;2024-01-11T08:06:18;35.58;;;17.90;;
14118;SDS011;7138;49.246;9.100;2024-01-11T08:08:44;41.20;;;18.65;;
14118;SDS011;7138;49.246;9.100;2024-01-11T08:11:16;37.47;;;18.08;;
14118;SDS011;7138;49.246;9.100;2024-01-11T08:13:43;35.58;;;18.58;;
14118;SDS011;7138;49.246;9.100;2024-01-11T08:16:08;37.67;;;18.95;;
14118;SDS011;7138;49.246;9.100;2024-01-11T08:18:40;41.25;;;19.10;;
14118;SDS011;7138;49.246;9.100;2024-01-11T08:21:06;40.30;;;18.70;;
14118;SDS011;7138;49.246;9.100;2024-01-11T08:23:35;40.63;;;19.63;;
14118;SDS011;7138;49.246;9.100;2024-01-11T08:26:04;35.20;;;17.92;;
14118;SDS011;7138;49.246;9.100;2024-01-11T08:28:30;32.88;;;18.25;;
14118;SDS011;7138;49.246;9.100;2024-01-11T08:30:56;33.45;;;16.60;;
14118;SDS011;7138;49.246;9.100;2024-01-11T08:33:22;39.63;;;18.95;;
14118;SDS011;7138;49.246;9.100;2024-01-11T08:35:48;38.42;;;19.48;;
14118;SDS011;7138;49.246;9.100;2024-01-11T08:38:14;43.67;;;18.98;;
14118;SDS011;7138;49.246;9.100;2024-01-11T08:40:41;37.05;;;17.30;;
14118;SDS011;7138;49.246;9.100;2024-01-11T08:43:07;95.10;;;37.10;;
14118;SDS011;7138;49.246;9.100;2024-01-11T08:45:33;48.85;;;22.85;;
14118;SDS011;7138;49.246;9.100;2024-01-11T08:47:59;43.00;;;22.17;;
14118;SDS011;7138;49.246;9.100;2024-01-11T08:50:25;39.05;;;20.10;;
14118;SDS011;7138;49.246;9.100;2024-01-11T08:52:51;37.78;;;18.58;;
14118;SDS011;7138;49.246;9.100;2024-01-11T08:55:18;32.40;;;17.55;;
14118;SDS011;7138;49.246;9.100;2024-01-11T08:57:45;37.28;;;18.88;;
14118;SDS011;7138;49.246;9.100;2024-01-11T09:00:11;35.60;;;18.50;;
14118;SDS011;7138;49.246;9.100;2024-01-11T09:02:42;39.58;;;19.98;;
14118;SDS011;7138;49.246;9.100;2024-01-11T09:05:08;35.78;;;19.20;;
14118;SDS011;7138;49.246;9.100;2024-01-11T09:07:34;36.38;;;18.52;;
14118;SDS011;7138;49.246;9.100;2024-01-11T09:09:59;33.13;;;17.85;;
14118;SDS011;7138;49.246;9.100;2024-01-11T09:12:25;37.47;;;19.33;;
14118;SDS011;7138;49.246;9.100;2024-01-11T09:14:52;36.20;;;17.75;;
14118;SDS011;7138;49.246;9.100;2024-01-11T09:17:19;35.47;;;19.60;;
14118;SDS011;7138;49.246;9.100;2024-01-11T09:19:46;36.00;;;19.83;;
14118;SDS011;7138;49.246;9.100;2024-01-11T09:22:12;32.72;;;18.23;;
14118;SDS011;7138;49.246;9.100;2024-01-11T09:24:38;38.17;;;19.20;;
14118;SDS011;7138;49.246;9.100;2024-01-11T09:27:04;37.63;;;19.35;;
14118;SDS011;7138;49.246;9.100;2024-01-11T09:29:30;37.95;;;18.65;;
14118;SDS011;7138;49.246;9.100;2024-01-11T09:31:58;37.30;;;17.55;;
14118;SDS011;7138;49.246;9.100;2024-01-11T09:34:24;36.20;;;18.70;;
14118;SDS011;7138;49.246;9.100;2024-01-11T09:36:50;34.47;;;18.60;;
14118;SDS011;7138;49.246;9.100;2024-01-11T09:39:17;35.33;;;18.83;;
14118;SDS011;7138;49.246;9.100;2024-01-11T09:41:46;34.33;;;18.48;;
14118;SDS011;7138;49.246;9.100;2024-01-11T09:44:23;35.17;;;19.80;;
14118;SDS011;7138;49.246;9.100;2024-01-11T09:46:51;34.28;;;18.67;;
14118;SDS011;7138;49.246;9.100;2024-01-11T09:49:19;35.38;;;18.48;;
14118;SDS011;7138;49.246;9.100;2024-01-11T09:51:48;36.83;;;17.90;;
14118;SDS011;7138;49.246;9.100;2024-01-11T09:54:15;39.65;;;19.42;;
14118;SDS011;7138;49.246;9.100;2024-01-11T09:56:46;34.33;;;18.98;;
14118;SDS011;7138;49.246;9.100;2024-01-11T09:59:15;32.83;;;17.75;;
14118;SDS011;7138;49.246;9.100;2024-01-11T10:01:44;41.47;;;19.23;;
14118;SDS011;7138;49.246;9.100;2024-01-11T10:04:11;34.33;;;19.27;;
14118;SDS011;7138;49.246;9.100;2024-01-11T10:06:41;35.35;;;18.45;;
14118;SDS011;7138;49.246;9.100;2024-01-11T10:09:08;40.53;;;19.45;;
14118;SDS011;7138;49.246;9.100;2024-01-11T10:11:34;37.70;;;19.75;;
14118;SDS011;7138;49.246;9.100;2024-01-11T10:14:01;34.88;;;17.90;;
14118;SDS011;7138;49.246;9.100;2024-01-11T10:16:28;33.33;;;18.17;;
14118;SDS011;7138;49.246;9.100;2024-01-11T10:18:54;34.50;;;18.92;;
14118;SDS011;7138;49.246;9.100;2024-01-11T10:21:20;36.45;;;18.00;;
14118;SDS011;7138;49.246;9.100;2024-01-11T10:23:48;33.72;;;18.00;;
14118;SDS011;7138;49.246;9.100;2024-01-11T10:26:15;36.55;;;18.65;;
14118;SDS011;7138;49.246;9.100;2024-01-11T10:28:43;36.55;;;18.90;;
14118;SDS011;7138;49.246;9.100;2024-01-11T10:31:10;35.92;;;18.33;;
14118;SDS011;7138;49.246;9.100;2024-01-11T10:33:36;38.13;;;18.42;;
14118;SDS011;7138;49.246;9.100;2024-01-11T10:36:02;38.45;;;19.80;;
14118;SDS011;7138;49.246;9.100;2024-01-11T10:38:30;38.17;;;19.20;;
14118;SDS011;7138;49.246;9.100;2024-01-11T10:41:03;33.10;;;18.10;;
14118;SDS011;7138;49.246;9.100;2024-01-11T10:43:32;38.38;;;19.33;;
14118;SDS011;7138;49.246;9.100;2024-01-11T10:46:02;37.13;;;18.73;;
14118;SDS011;7138;49.246;9.100;2024-01-11T10:48:31;38.30;;;19.25;;
14118;SDS011;7138;49.246;9.100;2024-01-11T10:51:05;33.92;;;18.85;;
14118;SDS011;7138;49.246;9.100;2024-01-11T10:53:36;34.65;;;17.42;;
14118;SDS011;7138;49.246;9.100;2024-01-11T10:56:10;35.78;;;18.42;;
14118;SDS011;7138;49.246;9.100;2024-01-11T10:58:37;36.78;;;19.02;;
14118;SDS011;7138;49.246;9.100;2024-01-11T11:01:06;32.92;;;17.88;;
14118;SDS011;7138;49.246;9.100;2024-01-11T11:03:34;33.95;;;18.25;;
14118;SDS011;7138;49.246;9.100;2024-01-11T11:06:00;37.22;;;19.08;;
14118;SDS011;7138;49.246;9.100;2024-01-11T11:08:28;35.20;;;18.73;;
14118;SDS011;7138;49.246;9.100;2024-01-11T11:10:55;36.03;;;18.75;;
14118;SDS011;7138;49.246;9.100;2024-01-11T11:13:24;36.60;;;18.88;;
14118;SDS011;7138;49.246;9.100;2024-01-11T11:15:50;38.63;;;19.50;;
14118;SDS011;7138;49.246;9.100;2024-01-11T11:18:18;37.47;;;18.77;;
14118;SDS011;7138;49.246;9.100;2024-01-11T11:20:46;34.67;;;18.65;;
14118;SDS011;7138;49.246;9.100;2024-01-11T11:23:13;33.03;;;18.55;;
14118;SDS011;7138;49.246;9.100;2024-01-11T11:25:45;34.38;;;18.40;;
14118;SDS011;7138;49.246;9.100;2024-01-11T11:28:13;33.10;;;18.40;;
14118;SDS011;7138;49.246;9.100;2024-01-11T11:30:44;32.05;;;18.42;;
14118;SDS011;7138;49.246;9.100;2024-01-11T11:33:17;28.77;;;17.58;;
14118;SDS011;7138;49.246;9.100;2024-01-11T11:35:45;34.10;;;18.63;;
14118;SDS011;7138;49.246;9.100;2024-01-11T11:38:17;30.90;;;17.48;;
14118;SDS011;7138;49.246;9.100;2024-01-11T11:40:44;32.22;;;18.02;;
14118;SDS011;7138;49.246;9.100;2024-01-11T11:43:11;31.27;;;17.63;;
14118;SDS011;7138;49.246;9.100;2024-01-11T11:45:39;30.17;;;17.85;;
14118;SDS011;7138;49.246;9.100;2024-01-11T11:51:14;32.50;;;17.65;;
14118;SDS011;7138;49.246;9.100;2024-01-11T11:53:42;33.80;;;16.50;;
14118;SDS011;7138;49.246;9.100;2024-01-11T11:56:08;28.48;;;15.90;;
14118;SDS011;7138;49.246;9.100;2024-01-11T11:58:35;29.10;;;16.42;;
14118;SDS011;7138;49.246;9.100;2024-01-11T12:01:03;29.90;;;17.70;;
14118;SDS011;7138;49.246;9.100;2024-01-11T12:03:29;33.42;;;19.27;;
14118;SDS011;7138;49.246;9.100;2024-01-11T12:06:03;33.42;;;17.30;;
14118;SDS011;7138;49.246;9.100;2024-01-11T12:08:30;29.13;;;16.15;;
14118;SDS011;7138;49.246;9.100;2024-01-11T12:10:57;31.45;;;17.38;;
14118;SDS011;7138;49.246;9.100;2024-01-11T12:13:23;29.20;;;16.23;;
14118;SDS011;7138;49.246;9.100;2024-01-11T12:15:50;29.67;;;16.58;;
14118;SDS011;7138;49.246;9.100;2024-01-11T12:18:18;30.70;;;17.80;;
14118;SDS011;7138;49.246;9.100;2024-01-11T12:20:44;28.42;;;17.05;;
14118;SDS011;7138;49.246;9.100;2024-01-11T12:23:11;32.85;;;17.98;;
14118;SDS011;7138;49.246;9.100;2024-01-11T12:25:39;31.13;;;18.23;;
14118;SDS011;7138;49.246;9.100;2024-01-11T12:28:06;29.60;;;16.48;;
14118;SDS011;7138;49.246;9.100;2024-01-11T12:30:32;32.65;;;18.05;;
14118;SDS011;7138;49.246;9.100;2024-01-11T12:32:58;33.15;;;17.60;;
14118;SDS011;7138;49.246;9.100;2024-01-11T12:35:30;31.15;;;16.90;;
14118;SDS011;7138;49.246;9.100;2024-01-11T12:37:58;28.73;;;16.15;;
14118;SDS011;7138;49.246;9.100;2024-01-11T12:40:25;31.33;;;16.98;;
14118;SDS011;7138;49.246;9.100;2024-01-11T12:42:52;30.42;;;16.02;;
14118;SDS011;7138;49.246;9.100;2024-01-11T12:45:18;27.88;;;15.88;;
14118;SDS011;7138;49.246;9.100;2024-01-11T12:47:45;30.05;;;16.50;;
14118;SDS011;7138;49.246;9.100;2024-01-11T12:50:11;26.42;;;16.02;;
14118;SDS011;7138;49.246;9.100;2024-01-11T12:52:39;29.40;;;16.40;;
14118;SDS011;7138;49.246;9.100;2024-01-11T12:55:06;26.45;;;15.45;;
14118;SDS011;7138;49.246;9.100;2024-01-11T12:57:43;27.52;;;16.08;;
14118;SDS011;7138;49.246;9.100;2024-01-11T13:00:09;30.80;;;16.85;;
14118;SDS011;7138;49.246;9.100;2024-01-11T13:02:36;30.90;;;17.10;;
14118;SDS011;7138;49.246;9.100;2024-01-11T13:05:02;29.05;;;16.08;;
14118;SDS011;7138;49.246;9.100;2024-01-11T13:07:30;28.10;;;16.77;;
14118;SDS011;7138;49.246;9.100;2024-01-11T13:09:57;28.25;;;15.95;;
14118;SDS011;7138;49.246;9.100;2024-01-11T13:12:23;28.30;;;16.27;;
14118;SDS011;7138;49.246;9.100;2024-01-11T13:14:49;27.88;;;15.70;;
14118;SDS011;7138;49.246;9.100;2024-01-11T13:17:17;27.27;;;14.75;;
14118;SDS011;7138;49.246;9.100;2024-01-11T13:19:43;29.15;;;14.88;;
14118;SDS011;7138;49.246;9.100;2024-01-11T13:22:10;26.65;;;15.45;;
14118;SDS011;7138;49.246;9.100;2024-01-11T13:24:36;27.17;;;14.70;;
14118;SDS011;7138;49.246;9.100;2024-01-11T13:27:03;30.63;;;16.92;;
14118;SDS011;7138;49.246;9.100;2024-01-11T13:29:29;27.17;;;15.63;;
14118;SDS011;7138;49.246;9.100;2024-01-11T13:31:55;30.75;;;16.95;;
14118;SDS011;7138;49.246;9.100;2024-01-11T13:34:21;29.63;;;16.27;;
14118;SDS011;7138;49.246;9.100;2024-01-11T13:36:46;29.63;;;17.10;;
14118;SDS011;7138;49.246;9.100;2024-01-11T13:39:12;30.30;;;15.95;;
14118;SDS011;7138;49.246;9.100;2024-01-11T13:41:39;29.02;;;15.60;;
14118;SDS011;7138;49.246;9.100;2024-01-11T13:44:07;28.33;;;16.65;;
14118;SDS011;7138;49.246;9.100;2024-01-11T13:46:34;30.48;;;16.75;;
14118;SDS011;7138;49.246;9.100;2024-01-11T13:49:00;27.27;;;16.00;;
14118;SDS011;7138;49.246;9.100;2024-01-11T13:51:28;28.58;;;16.02;;
14118;SDS011;7138;49.246;9.100;2024-01-11T13:53:53;28.50;;;14.68;;
14118;SDS011;7138;49.246;9.100;2024-01-11T13:56:19;30.50;;;15.30;;
14118;SDS011;7138;49.246;9.100;2024-01-11T13:58:45;30.23;;;15.90;;
14118;SDS011;7138;49.246;9.100;2024-01-11T14:01:12;28.67;;;15.43;;
14118;SDS011;7138;49.246;9.100;2024-01-11T14:03:38;25.42;;;14.40;;
14118;SDS011;7138;49.246;9.100;2024-01-11T14:06:04;27.88;;;15.15;;
14118;SDS011;7138;49.246;9.100;2024-01-11T14:08:30;25.60;;;14.73;;
14118;SDS011;7138;49.246;9.100;2024-01-11T14:10:56;27.88;;;15.27;;
14118;SDS011;7138;49.246;9.100;2024-01-11T14:13:22;27.63;;;15.27;;
14118;SDS011;7138;49.246;9.100;2024-01-11T14:15:48;27.85;;;15.70;;
14118;SDS011;7138;49.246;9.100;2024-01-11T14:18:17;28.05;;;15.13;;
14118;SDS011;7138;49.246;9.100;2024-01-11T14:20:43;24.48;;;14.32;;
14118;SDS011;7138;49.246;9.100;2024-01-11T14:23:09;25.23;;;14.65;;
14118;SDS011;7138;49.246;9.100;2024-01-11T14:25:35;26.98;;;15.73;;
14118;SDS011;7138;49.246;9.100;2024-01-11T14:28:01;24.92;;;14.50;;
14118;SDS011;7138;49.246;9.100;2024-01-11T14:30:29;25.02;;;14.23;;
14118;SDS011;7138;49.246;9.100;2024-01-11T14:32:55;25.80;;;14.65;;
14118;SDS011;7138;49.246;9.100;2024-01-11T14:35:22;25.65;;;14.73;;